Time;durP1;ratioP1;P1;durP2;ratioP2;P2;SDS_P1;SDS_P2;PMS_P1;PMS_P2;Temp;Humidity;BMP_temperature;BMP_pressure;BME280_temperature;BME280_humidity;BME280_pressure;Samples;Min_cycle;Max_cycle;Signal;HPM_P1;HPM_P2
2023/05/06 00:00:35;;;;;;;6.50;4.03;;;12.60;99.90;;;;;;5072458;28;19950;-87
2023/05/06 00:03:00;;;;;;;;;;;12.60;99.90;;;;;;5071739;28;20112;-85
2023/05/06 00:05:26;;;;;;;8.65;4.25;;;12.50;99.90;;;;;;5071716;28;19904;-86
2023/05/06 00:07:52;;;;;;;;;;;12.50;99.90;;;;;;5072636;28;20026;-87
2023/05/06 00:10:17;;;;;;;6.30;3.80;;;12.40;99.90;;;;;;5072347;28;19912;-87
2023/05/06 00:12:43;;;;;;;;;;;12.40;99.90;;;;;;5071667;28;20039;-87
2023/05/06 00:15:09;;;;;;;9.90;3.92;;;12.40;99.90;;;;;;5072187;28;20594;-87
2023/05/06 00:17:35;;;;;;;7.25;4.25;;;12.30;99.90;;;;;;5072138;28;20028;-87
2023/05/06 00:20:01;;;;;;;;;;;12.30;99.90;;;;;;5072703;28;20032;-87
2023/05/06 00:22:27;;;;;;;7.15;4.13;;;12.30;99.90;;;;;;5072199;28;19916;-87
2023/05/06 00:24:52;;;;;;;;;;;12.20;99.90;;;;;;5073807;28;20055;-87
2023/05/06 00:27:18;;;;;;;5.40;3.38;;;12.20;99.90;;;;;;5072414;28;20049;-86
2023/05/06 00:29:43;;;;;;;;;;;12.20;99.90;;;;;;5072787;28;20119;-87
2023/05/06 00:32:09;;;;;;;9.60;4.30;;;12.10;99.90;;;;;;5072279;28;19904;-87
2023/05/06 00:34:35;;;;;;;5.28;3.70;;;12.10;99.90;;;;;;5072031;28;20013;-87
2023/05/06 00:37:01;;;;;;;;;;;12.10;99.90;;;;;;5072344;28;20755;-87
2023/05/06 00:39:26;;;;;;;7.72;4.38;;;12.00;99.90;;;;;;5072059;28;19909;-86
2023/05/06 00:41:52;;;;;;;;;;;12.00;99.90;;;;;;5072559;28;20024;-87
2023/05/06 00:44:17;;;;;;;6.05;4.22;;;12.00;99.90;;;;;;5071955;28;19908;-86
2023/05/06 00:46:43;;;;;;;;;;;12.00;99.90;;;;;;5072378;28;20027;-86
2023/05/06 00:49:10;;;;;;;7.82;4.13;;;11.90;99.90;;;;;;5073097;28;19904;-86
2023/05/06 00:51:36;;;;;;;7.43;3.85;;;11.90;99.90;;;;;;5071483;28;20020;-90
2023/05/06 00:54:01;;;;;;;;;;;11.90;99.90;;;;;;5071740;28;20078;-89
2023/05/06 00:56:27;;;;;;;6.40;3.97;;;11.90;99.90;;;;;;5071791;28;20397;-90
2023/05/06 00:58:53;;;;;;;;;;;11.80;99.90;;;;;;5072583;28;20504;-89
2023/05/06 01:01:21;;;;;;;7.35;4.15;;;11.80;99.90;;;;;;5071809;28;19915;-86
2023/05/06 01:03:47;;;;;;;10.80;4.93;;;11.80;99.90;;;;;;5072324;28;20033;-86
2023/05/06 01:06:19;;;;;;;;;;;11.90;99.90;;;;;;5069284;28;20035;-86
2023/05/06 01:09:06;;;;;;;7.45;4.25;;;11.90;99.90;;;;;;5071204;28;20369;-87
2023/05/06 01:11:50;;;;;;;;;;;11.90;99.90;;;;;;5072146;28;20024;-87
2023/05/06 01:14:29;;;;;;;4.97;3.05;;;11.80;99.90;;;;;;5071421;28;20318;-86
2023/05/06 01:17:00;;;;;;;9.85;4.40;;;11.90;99.90;;;;;;5072045;28;20062;-86
2023/05/06 01:19:38;;;;;;;8.18;4.15;;;11.80;99.90;;;;;;5072611;28;20493;-85
2023/05/06 01:22:06;;;;;;;5.50;3.63;;;11.80;99.90;;;;;;5071015;28;20147;-85
2023/05/06 01:24:42;;;;;;;7.20;3.97;;;11.80;99.90;;;;;;5070557;28;20028;-85
2023/05/06 01:27:11;;;;;;;7.07;4.38;;;11.80;99.90;;;;;;5071171;28;20566;-85
2023/05/06 01:29:40;;;;;;;8.32;4.70;;;11.80;99.90;;;;;;5071445;28;20013;-87
2023/05/06 01:32:15;;;;;;;6.15;4.38;;;11.80;99.90;;;;;;5071933;28;20400;-83
2023/05/06 01:34:51;;;;;;;15.55;4.45;;;11.70;99.90;;;;;;5071101;28;20066;-86
2023/05/06 01:37:40;;;;;;;6.07;4.20;;;11.70;99.90;;;;;;5069989;28;20028;-86
2023/05/06 01:40:08;;;;;;;9.82;5.47;;;11.70;99.90;;;;;;5071038;28;20111;-86
2023/05/06 01:42:35;;;;;;;5.70;3.25;;;11.80;99.90;;;;;;5070342;28;20114;-85
2023/05/06 01:45:03;;;;;;;4.85;3.33;;;11.80;99.90;;;;;;5070831;28;20021;-87
2023/05/06 01:47:30;;;;;;;7.18;3.53;;;11.80;99.90;;;;;;5071252;28;20036;-89
2023/05/06 01:49:57;;;;;;;6.03;3.92;;;11.80;99.90;;;;;;5071433;28;20054;-89
2023/05/06 01:52:24;;;;;;;9.20;3.97;;;11.80;99.90;;;;;;5070911;28;20052;-89
2023/05/06 01:54:50;;;;;;;6.80;4.65;;;11.80;99.90;;;;;;5070572;28;20029;-88
2023/05/06 01:57:15;;;;;;;;;;;11.80;99.90;;;;;;5071699;28;20397;-89
2023/05/06 01:59:41;;;;;;;7.18;4.30;;;11.70;99.90;;;;;;5071342;28;19967;-90
2023/05/06 02:02:07;;;;;;;;;;;11.70;99.90;;;;;;5071630;28;20115;-89
2023/05/06 02:04:32;;;;;;;9.43;5.32;;;11.70;99.90;;;;;;5073057;28;19995;-89
2023/05/06 02:06:58;;;;;;;;;;;11.60;99.90;;;;;;5075329;28;20028;-89
2023/05/06 02:09:23;;;;;;;5.82;4.13;;;11.60;99.90;;;;;;5074900;28;19905;-86
2023/05/06 02:11:49;;;;;;;;;;;11.60;99.90;;;;;;5075232;28;20025;-87
2023/05/06 02:14:14;;;;;;;6.75;4.07;;;11.60;99.90;;;;;;5075097;28;19999;-87
2023/05/06 02:16:40;;;;;;;;;;;11.60;99.90;;;;;;5075126;28;20119;-87
2023/05/06 02:19:06;;;;;;;5.85;3.28;;;11.60;99.90;;;;;;5074622;28;19947;-87
2023/05/06 02:21:31;;;;;;;;;;;11.60;99.90;;;;;;5074871;28;20056;-88
2023/05/06 02:23:57;;;;;;;7.05;3.75;;;11.60;99.90;;;;;;5074276;28;19919;-87
2023/05/06 02:26:23;;;;;;;;;;;11.60;99.90;;;;;;5074525;28;20081;-85
2023/05/06 02:28:48;;;;;;;9.15;4.30;;;11.60;99.90;;;;;;5074036;28;20365;-87
2023/05/06 02:31:14;;;;;;;;;;;11.60;99.90;;;;;;5074440;28;20542;-87
2023/05/06 02:33:40;;;;;;;5.30;3.83;;;11.70;99.90;;;;;;5074416;28;20428;-87
2023/05/06 02:36:06;;;;;;;;;;;11.70;99.90;;;;;;5074641;28;20024;-85
2023/05/06 02:38:31;;;;;;;6.22;4.20;;;11.80;99.90;;;;;;5073851;28;20297;-84
2023/05/06 02:40:57;;;;;;;;;;;11.80;99.90;;;;;;5074472;28;20405;-87
2023/05/06 02:43:22;;;;;;;11.00;3.92;;;11.90;99.90;;;;;;5074018;28;20369;-88
2023/05/06 02:45:48;;;;;;;;;;;11.90;99.90;;;;;;5075292;28;20032;-87
2023/05/06 02:48:13;;;;;;;8.30;5.28;;;11.90;99.90;;;;;;5074097;28;19904;-88
2023/05/06 02:50:40;;;;;;;;;;;12.00;99.90;;;;;;5075841;28;20021;-88
2023/05/06 02:53:05;;;;;;;5.90;4.38;;;12.00;99.90;;;;;;5075288;28;19904;-85
2023/05/06 02:55:31;;;;;;;;;;;12.00;99.90;;;;;;5071608;28;20028;-83
2023/05/06 02:57:56;;;;;;;9.70;4.10;;;12.00;99.90;;;;;;5070793;28;19908;-83
2023/05/06 03:00:22;;;;;;;;;;;12.00;99.90;;;;;;5073151;28;20111;-87
2023/05/06 03:02:48;;;;;;;9.20;4.72;;;12.00;99.90;;;;;;5072891;28;19959;-87
2023/05/06 03:05:13;;;;;;;;;;;12.00;99.90;;;;;;5073718;28;20063;-87
2023/05/06 03:07:40;;;;;;;16.27;5.32;;;12.00;99.90;;;;;;5073099;28;19909;-87
2023/05/06 03:10:06;;;;;;;6.93;3.83;;;11.90;99.90;;;;;;5073392;28;20032;-85
2023/05/06 03:12:31;;;;;;;5.07;3.63;;;12.00;99.90;;;;;;5071934;28;20024;-86
2023/05/06 03:14:57;;;;;;;;;;;12.00;99.90;;;;;;5072548;28;20031;-87
2023/05/06 03:17:23;;;;;;;8.50;4.90;;;12.00;99.90;;;;;;5071832;28;19905;-86
2023/05/06 03:19:49;;;;;;;;;;;12.00;99.90;;;;;;5072899;28;20017;-86
2023/05/06 03:22:15;;;;;;;9.45;4.45;;;12.00;99.90;;;;;;5072204;28;19923;-86
2023/05/06 03:24:40;;;;;;;;;;;12.10;99.90;;;;;;5075137;28;20024;-86
2023/05/06 03:27:06;;;;;;;9.27;4.35;;;12.20;99.90;;;;;;5071129;28;19904;-86
2023/05/06 03:29:31;;;;;;;;;;;12.20;99.90;;;;;;5071909;28;20025;-85
2023/05/06 03:31:57;;;;;;;10.98;4.43;;;12.30;99.90;;;;;;5070983;28;19908;-85
2023/05/06 03:34:22;;;;;;;;;;;12.30;99.90;;;;;;5070559;28;20031;-84
2023/05/06 03:36:48;;;;;;;5.80;3.88;;;12.30;99.90;;;;;;5074325;28;19908;-85
2023/05/06 03:39:14;;;;;;;;;;;12.30;99.90;;;;;;5073304;28;20112;-84
2023/05/06 03:41:39;;;;;;;12.32;4.82;;;12.30;99.90;;;;;;5072991;28;20285;-82
2023/05/06 03:44:05;;;;;;;;;;;12.30;99.90;;;;;;5073103;28;20037;-83
2023/05/06 03:46:31;;;;;;;11.38;4.03;;;12.40;99.90;;;;;;5073057;28;19931;-86
2023/05/06 03:48:59;;;;;;;16.52;4.72;;;12.50;99.90;;;;;;5091508;28;20029;-86
2023/05/06 03:51:25;;;;;;;10.98;4.00;;;12.50;99.90;;;;;;5074042;28;20037;-85
2023/05/06 03:53:50;;;;;;;;;;;12.60;99.90;;;;;;5089918;28;20043;-86
2023/05/06 03:56:17;;;;;;;7.70;3.67;;;12.70;99.90;;;;;;5071101;28;20278;-85
2023/05/06 03:58:42;;;;;;;8.93;4.63;;;12.70;99.90;;;;;;5070909;28;20123;-85
2023/05/06 04:01:08;;;;;;;;;;;12.80;99.90;;;;;;5071594;28;20445;-86
2023/05/06 04:03:33;;;;;;;8.45;4.13;;;12.80;99.90;;;;;;5071864;28;19916;-86
2023/05/06 04:05:59;;;;;;;;;;;12.90;99.90;;;;;;5072114;28;20107;-84
2023/05/06 04:08:25;;;;;;;7.45;3.67;;;13.00;99.90;;;;;;5071290;28;19910;-84
2023/05/06 04:10:50;;;;;;;;;;;13.10;99.90;;;;;;5072353;28;20443;-86
2023/05/06 04:13:16;;;;;;;10.27;3.95;;;13.20;99.90;;;;;;5071648;28;19916;-85
2023/05/06 04:15:42;;;;;;;;;;;13.30;99.90;;;;;;5072550;28;20027;-85
2023/05/06 04:18:08;;;;;;;10.32;3.75;;;13.50;99.90;;;;;;5071964;28;19934;-85
2023/05/06 04:20:33;;;;;;;12.73;4.35;;;13.70;99.90;;;;;;5071249;28;20501;-85
2023/05/06 04:22:59;;;;;;;;;;;13.90;99.90;;;;;;5072161;28;20035;-86
2023/05/06 04:25:26;;;;;;;9.38;4.20;;;14.00;99.90;;;;;;5072084;28;20051;-85
2023/05/06 04:27:52;;;;;;;9.10;3.55;;;14.20;99.90;;;;;;5071743;28;20091;-86
2023/05/06 04:30:19;;;;;;;;;;;14.30;99.90;;;;;;5072361;28;20117;-85
2023/05/06 04:32:45;;;;;;;6.70;3.38;;;14.40;99.90;;;;;;5072004;28;19905;-86
2023/05/06 04:35:10;;;;;;;;;;;14.50;99.90;;;;;;5072866;28;20103;-85
2023/05/06 04:37:36;;;;;;;7.22;3.13;;;14.60;99.90;;;;;;5069713;28;19943;-87
2023/05/06 04:40:03;;;;;;;;;;;14.80;99.90;;;;;;5072328;28;20032;-86
2023/05/06 04:42:28;;;;;;;6.75;2.83;;;15.00;99.90;;;;;;5071901;28;19924;-86
2023/05/06 04:44:54;;;;;;;;;;;15.10;99.90;;;;;;5072253;28;20035;-87
2023/05/06 04:47:20;;;;;;;6.20;3.00;;;15.30;99.90;;;;;;5071619;28;19998;-87
2023/05/06 04:49:46;;;;;;;3.90;2.40;;;15.50;99.90;;;;;;5071780;28;20024;-86
2023/05/06 04:52:12;;;;;;;5.05;2.70;;;15.60;99.90;;;;;;5072629;28;20039;-87
2023/05/06 04:54:37;;;;;;;6.00;2.40;;;15.80;99.90;;;;;;5071986;28;20028;-87
2023/05/06 04:57:03;;;;;;;2.97;2.10;;;15.90;99.90;;;;;;5071827;28;20028;-87
2023/05/06 04:59:29;;;;;;;3.30;2.00;;;16.10;99.90;;;;;;5072032;28;20485;-86
2023/05/06 05:01:54;;;;;;;13.35;2.55;;;16.30;99.90;;;;;;5071773;28;20028;-86
2023/05/06 05:04:20;;;;;;;3.72;1.73;;;16.40;99.90;;;;;;5071477;28;20031;-86
2023/05/06 05:06:45;;;;;;;3.85;2.20;;;16.60;99.90;;;;;;5071856;28;20028;-87
2023/05/06 05:09:11;;;;;;;6.32;2.30;;;16.80;99.90;;;;;;5071941;28;20024;-86
2023/05/06 05:11:37;;;;;;;5.07;2.58;;;17.10;99.90;;;;;;5071854;28;20111;-87
2023/05/06 05:14:03;;;;;;;2.85;1.60;;;17.30;99.90;;;;;;5071741;28;20108;-87
2023/05/06 05:16:29;;;;;;;4.10;1.88;;;17.50;99.90;;;;;;5071351;28;20701;-86
2023/05/06 05:18:55;;;;;;;4.97;2.05;;;17.60;99.90;;;;;;5070235;28;20035;-87
2023/05/06 05:21:20;;;;;;;8.30;2.40;;;17.70;99.90;;;;;;5072498;28;20056;-87
2023/05/06 05:23:46;;;;;;;4.65;1.77;;;17.90;99.90;;;;;;5071421;28;20032;-87
2023/05/06 05:26:12;;;;;;;4.10;1.60;;;18.10;99.90;;;;;;5071584;28;20401;-87
2023/05/06 05:28:37;;;;;;;5.00;1.70;;;18.30;99.90;;;;;;5071498;28;20032;-87
2023/05/06 05:31:04;;;;;;;3.67;1.80;;;18.50;94.90;;;;;;5071356;28;20027;-87
2023/05/06 05:33:29;;;;;;;4.05;1.10;;;18.80;93.60;;;;;;5071422;28;20519;-88
2023/05/06 05:35:56;;;;;;;3.22;1.17;;;19.00;88.90;;;;;;5072462;28;20056;-87
2023/05/06 05:38:22;;;;;;;1.77;1.08;;;19.20;77.20;;;;;;5071144;28;20029;-87
2023/05/06 05:40:48;;;;;;;5.70;1.23;;;19.30;74.50;;;;;;5075160;28;20032;-87
2023/05/06 05:43:13;;;;;;;4.50;1.02;;;19.30;72.40;;;;;;5076106;28;20036;-87
2023/05/06 05:45:39;;;;;;;15.18;1.52;;;19.50;72.90;;;;;;5075216;28;20081;-87
2023/05/06 05:48:05;;;;;;;3.33;1.27;;;19.70;68.60;;;;;;5075385;28;20127;-88
2023/05/06 05:50:30;;;;;;;2.85;1.10;;;19.90;68.90;;;;;;5073884;28;20029;-85
2023/05/06 05:52:56;;;;;;;4.80;1.10;;;20.20;65.10;;;;;;5074110;28;20036;-85
2023/05/06 05:55:21;;;;;;;8.30;0.93;;;20.30;66.90;;;;;;5074333;28;20535;-84
2023/05/06 05:57:47;;;;;;;2.03;0.80;;;20.60;62.40;;;;;;5072490;28;20028;-86
2023/05/06 06:00:13;;;;;;;2.78;0.98;;;20.80;59.90;;;;;;5071731;28;20642;-87
2023/05/06 06:02:40;;;;;;;4.18;0.88;;;20.90;57.50;;;;;;5074623;28;20032;-87
2023/05/06 06:05:06;;;;;;;5.05;0.90;;;21.20;54.50;;;;;;5074522;28;20622;-87
2023/05/06 06:07:32;;;;;;;6.93;1.10;;;21.40;53.20;;;;;;5073964;28;20555;-86
2023/05/06 06:09:57;;;;;;;6.78;1.58;;;21.70;51.40;;;;;;5074390;28;20025;-87
2023/05/06 06:12:23;;;;;;;6.55;1.98;;;22.10;49.00;;;;;;5073841;28;20024;-87
2023/05/06 06:14:49;;;;;;;13.50;1.20;;;22.50;48.40;;;;;;5074199;28;20060;-88
2023/05/06 06:17:15;;;;;;;6.43;1.55;;;22.90;47.00;;;;;;5074542;28;20043;-88
2023/05/06 06:19:40;;;;;;;5.00;1.45;;;23.20;46.00;;;;;;5074375;28;20060;-88
2023/05/06 06:22:06;;;;;;;3.58;1.38;;;23.50;46.20;;;;;;5073883;28;20076;-87
2023/05/06 06:24:33;;;;;;;3.13;1.10;;;23.50;45.80;;;;;;5074429;28;20052;-84
2023/05/06 06:27:00;;;;;;;5.32;1.40;;;23.40;45.50;;;;;;5074002;28;20027;-87
2023/05/06 06:29:26;;;;;;;3.58;1.30;;;23.00;45.80;;;;;;5074114;28;20024;-88
2023/05/06 06:31:54;;;;;;;5.70;1.77;;;22.80;46.90;;;;;;5073592;28;20030;-88
2023/05/06 06:34:20;;;;;;;2.83;1.35;;;22.70;47.70;;;;;;5073553;28;20107;-88
2023/05/06 06:36:46;;;;;;;3.83;1.30;;;22.50;47.60;;;;;;5074391;28;20024;-88
2023/05/06 06:39:12;;;;;;;4.57;2.22;;;22.40;49.20;;;;;;5074319;28;20028;-87
2023/05/06 06:41:39;;;;;;;3.53;1.67;;;22.20;49.10;;;;;;5074141;28;20028;-86
2023/05/06 06:44:05;;;;;;;9.73;1.42;;;22.10;47.80;;;;;;5073776;28;20049;-87
2023/05/06 06:46:31;;;;;;;5.03;1.70;;;21.90;48.60;;;;;;5075513;28;20032;-88
2023/05/06 06:48:56;;;;;;;8.40;2.10;;;21.90;49.50;;;;;;5073915;28;20115;-88
2023/05/06 06:51:22;;;;;;;7.07;2.13;;;21.90;49.70;;;;;;5075060;28;20090;-87
2023/05/06 06:53:50;;;;;;;4.65;1.52;;;21.90;50.80;;;;;;5073853;28;20074;-88
2023/05/06 06:56:16;;;;;;;3.97;1.48;;;22.10;50.40;;;;;;5072983;28;20025;-87
2023/05/06 06:58:41;;;;;;;5.82;2.08;;;22.50;50.60;;;;;;5073624;28;20390;-87
2023/05/06 07:01:07;;;;;;;4.43;1.67;;;22.80;51.10;;;;;;5073496;28;20025;-88
2023/05/06 07:03:33;;;;;;;4.78;1.75;;;23.30;49.50;;;;;;5073311;28;20039;-88
2023/05/06 07:05:58;;;;;;;8.23;1.83;;;23.50;46.40;;;;;;5073325;28;20093;-88
2023/05/06 07:08:24;;;;;;;3.63;1.52;;;23.80;46.80;;;;;;5072070;28;20021;-87
2023/05/06 07:10:50;;;;;;;3.58;1.50;;;24.30;45.30;;;;;;5073758;28;20448;-87
2023/05/06 07:13:15;;;;;;;6.55;2.10;;;24.50;44.30;;;;;;5072429;28;20025;-87
2023/05/06 07:15:41;;;;;;;8.05;1.73;;;24.70;43.20;;;;;;5071782;28;20037;-87
2023/05/06 07:18:08;;;;;;;2.55;1.65;;;25.00;43.80;;;;;;5072578;28;20401;-85
2023/05/06 07:20:33;;;;;;;7.97;1.83;;;25.30;42.40;;;;;;5071526;28;20056;-89
2023/05/06 07:22:59;;;;;;;8.15;1.73;;;25.80;42.10;;;;;;5074771;28;20035;-89
2023/05/06 07:25:26;;;;;;;6.15;1.73;;;26.20;40.40;;;;;;5073063;28;20636;-86
2023/05/06 07:27:52;;;;;;;5.05;2.13;;;26.50;39.70;;;;;;5073070;28;20052;-86
2023/05/06 07:30:19;;;;;;;6.93;2.28;;;26.80;40.60;;;;;;5072902;28;20056;-85
2023/05/06 07:32:44;;;;;;;3.40;1.77;;;27.20;38.20;;;;;;5073047;28;20024;-87
2023/05/06 07:35:10;;;;;;;6.32;2.00;;;27.00;40.40;;;;;;5074291;28;20035;-86
2023/05/06 07:37:36;;;;;;;5.13;1.63;;;27.40;37.90;;;;;;5073019;28;20024;-86
2023/05/06 07:40:01;;;;;;;5.68;1.90;;;27.40;35.60;;;;;;5073216;28;20024;-87
2023/05/06 07:42:27;;;;;;;2.83;1.58;;;27.70;34.70;;;;;;5073085;28;20516;-86
2023/05/06 07:44:53;;;;;;;4.18;1.38;;;28.30;34.30;;;;;;5072572;28;20560;-87
2023/05/06 07:47:37;;;;;;;8.90;1.75;;;28.50;33.10;;;;;;5072829;28;20029;-88
2023/05/06 07:50:05;;;;;;;3.45;1.50;;;29.10;30.40;;;;;;5071487;28;20025;-88
2023/05/06 07:52:30;;;;;;;2.95;1.50;;;29.30;33.00;;;;;;5072486;28;20025;-88
2023/05/06 07:54:56;;;;;;;4.00;1.85;;;29.90;31.80;;;;;;5072930;28;20078;-88
2023/05/06 07:57:22;;;;;;;3.70;1.95;;;30.30;30.60;;;;;;5070868;28;20558;-87
2023/05/06 07:59:49;;;;;;;4.13;1.52;;;30.70;31.10;;;;;;5070940;28;20447;-87
2023/05/06 08:02:15;;;;;;;6.88;2.03;;;31.10;31.00;;;;;;5070076;28;20440;-88
2023/05/06 08:04:41;;;;;;;6.80;1.88;;;31.60;29.50;;;;;;5071726;28;20025;-88
2023/05/06 08:07:07;;;;;;;8.45;1.90;;;31.70;28.90;;;;;;5070534;28;20051;-88
2023/05/06 08:09:33;;;;;;;6.88;2.35;;;31.40;28.80;;;;;;5072592;28;20445;-87
2023/05/06 08:11:58;;;;;;;4.45;2.10;;;31.40;28.30;;;;;;5071054;28;20499;-86
2023/05/06 08:14:27;;;;;;;3.80;1.67;;;31.40;28.80;;;;;;5071618;28;20036;-88
2023/05/06 08:16:53;;;;;;;4.53;1.85;;;31.50;27.70;;;;;;5070861;28;20546;-89
2023/05/06 08:19:20;;;;;;;8.02;2.03;;;31.10;29.10;;;;;;5070581;28;20036;-87
2023/05/06 08:21:47;;;;;;;4.35;1.48;;;30.90;29.20;;;;;;5070539;28;20068;-87
2023/05/06 08:24:13;;;;;;;3.33;1.15;;;30.70;29.20;;;;;;5069819;28;20056;-88
2023/05/06 08:26:39;;;;;;;5.05;1.58;;;30.90;29.50;;;;;;5070160;28;20028;-87
2023/05/06 08:29:06;;;;;;;2.83;1.30;;;31.00;28.10;;;;;;5070663;28;20074;-86
2023/05/06 08:31:32;;;;;;;4.65;1.95;;;31.10;28.90;;;;;;5071251;28;20101;-88
2023/05/06 08:33:58;;;;;;;15.32;2.00;;;31.30;29.30;;;;;;5071639;28;20064;-86
2023/05/06 08:36:24;;;;;;;7.53;1.70;;;31.00;29.50;;;;;;5069900;28;20046;-86
2023/05/06 08:38:50;;;;;;;7.65;1.17;;;30.90;28.50;;;;;;5070352;28;20606;-87
2023/05/06 08:41:20;;;;;;;9.10;1.98;;;30.80;29.40;;;;;;5071724;28;20021;-86
2023/05/06 08:43:47;;;;;;;11.27;2.30;;;30.50;29.10;;;;;;5077108;28;20040;-88
2023/05/06 08:46:13;;;;;;;5.22;2.30;;;30.40;29.60;;;;;;5069944;28;20028;-88
2023/05/06 08:48:40;;;;;;;4.50;1.85;;;30.40;31.30;;;;;;5072308;28;20042;-86
2023/05/06 08:51:07;;;;;;;8.60;1.98;;;30.40;30.20;;;;;;5087673;28;20040;-89
2023/05/06 08:53:33;;;;;;;3.60;1.40;;;30.50;29.60;;;;;;5070252;28;20035;-86
2023/05/06 08:56:05;;;;;;;6.38;1.98;;;30.50;28.50;;;;;;5070276;28;20024;-88
2023/05/06 08:58:37;;;;;;;5.55;2.28;;;30.30;30.20;;;;;;5070148;28;20082;-88
2023/05/06 09:01:03;;;;;;;3.58;1.70;;;30.30;29.40;;;;;;5071277;28;20473;-88
2023/05/06 09:03:29;;;;;;;5.32;2.10;;;30.10;30.10;;;;;;5069712;28;20040;-89
2023/05/06 09:05:56;;;;;;;5.93;1.45;;;29.80;31.00;;;;;;5069640;28;20028;-88
2023/05/06 09:08:22;;;;;;;4.53;1.58;;;30.00;30.90;;;;;;5071319;28;20025;-89
2023/05/06 09:10:47;;;;;;;14.02;2.10;;;30.40;30.30;;;;;;5070249;28;20407;-88
2023/05/06 09:13:18;;;;;;;7.85;2.00;;;30.70;30.90;;;;;;5070089;28;20029;-88
2023/05/06 09:15:47;;;;;;;7.63;2.45;;;30.50;30.60;;;;;;5075094;28;20027;-88
2023/05/06 09:18:14;;;;;;;8.57;3.17;;;30.50;30.80;;;;;;5074437;28;20033;-89
2023/05/06 09:20:45;;;;;;;3.70;1.88;;;30.20;31.30;;;;;;5074516;28;20029;-89
2023/05/06 09:23:12;;;;;;;4.13;2.00;;;29.90;32.10;;;;;;5075322;28;20041;-89
2023/05/06 09:25:38;;;;;;;5.18;2.00;;;29.60;31.90;;;;;;5074259;28;20021;-88
2023/05/06 09:28:09;;;;;;;4.20;2.17;;;29.10;32.10;;;;;;5075145;28;20526;-89
2023/05/06 09:30:43;;;;;;;3.47;2.38;;;29.00;33.70;;;;;;5073671;28;20546;-87
2023/05/06 09:33:09;;;;;;;7.38;2.30;;;28.90;33.10;;;;;;5073740;28;20126;-88
2023/05/06 09:35:37;;;;;;;3.35;2.55;;;28.90;34.00;;;;;;5073808;28;20024;-88
2023/05/06 09:38:02;;;;;;;7.97;2.60;;;28.90;34.10;;;;;;5076250;28;20104;-87
2023/05/06 09:40:28;;;;;;;3.70;1.95;;;28.80;34.00;;;;;;5074046;28;20120;-87
2023/05/06 09:42:55;;;;;;;11.75;2.60;;;28.80;33.70;;;;;;5073600;28;20408;-88
2023/05/06 09:45:23;;;;;;;4.80;2.17;;;28.40;34.60;;;;;;5074826;28;20024;-88
2023/05/06 09:47:49;;;;;;;8.75;1.95;;;27.90;35.10;;;;;;5074217;28;20063;-87
2023/05/06 09:50:16;;;;;;;5.22;2.67;;;28.00;36.90;;;;;;5073175;28;20056;-88
2023/05/06 09:52:46;;;;;;;7.50;2.30;;;28.10;35.60;;;;;;5074678;28;20171;-87
2023/05/06 09:55:12;;;;;;;5.72;1.92;;;28.00;34.70;;;;;;5073995;28;20115;-86
2023/05/06 09:57:39;;;;;;;4.03;2.25;;;27.70;34.70;;;;;;5074778;28;20029;-87
2023/05/06 10:00:10;;;;;;;4.97;2.40;;;27.40;36.30;;;;;;5073824;28;20029;-87
2023/05/06 10:02:39;;;;;;;4.90;2.05;;;27.50;37.40;;;;;;5073636;28;20534;-89
2023/05/06 10:05:07;;;;;;;4.70;2.38;;;27.90;37.20;;;;;;5073206;28;20464;-87
2023/05/06 10:07:34;;;;;;;6.93;2.20;;;28.20;36.80;;;;;;5073930;28;20059;-86
2023/05/06 10:10:02;;;;;;;4.55;2.42;;;28.20;36.30;;;;;;5072729;28;20119;-88
2023/05/06 10:12:28;;;;;;;4.93;1.83;;;28.20;36.20;;;;;;5072557;28;20085;-88
2023/05/06 10:14:55;;;;;;;7.13;2.95;;;28.00;36.90;;;;;;5073988;28;20032;-88
2023/05/06 10:17:24;;;;;;;5.20;2.40;;;27.70;36.60;;;;;;5073078;28;20020;-86
2023/05/06 10:19:54;;;;;;;7.05;2.47;;;27.30;38.10;;;;;;5075141;28;20018;-87
2023/05/06 10:22:38;;;;;;;3.08;2.08;;;27.20;37.50;;;;;;5072204;28;20062;-87
2023/05/06 10:25:35;;;;;;;4.85;2.33;;;27.30;38.70;;;;;;5072412;28;20032;-88
2023/05/06 10:28:05;;;;;;;7.43;2.33;;;27.20;39.30;;;;;;5056146;28;20047;-88
2023/05/06 10:30:33;;;;;;;11.50;3.45;;;26.90;40.00;;;;;;5072789;28;20117;-88
2023/05/06 10:33:05;;;;;;;4.43;3.00;;;26.60;38.80;;;;;;5074831;28;20040;-87
2023/05/06 10:35:41;;;;;;;5.38;2.30;;;26.20;39.30;;;;;;5073206;28;20016;-89
2023/05/06 10:38:11;;;;;;;4.60;2.42;;;26.00;40.70;;;;;;5073362;28;20040;-87
2023/05/06 10:40:37;;;;;;;5.28;2.40;;;26.00;41.60;;;;;;5074414;28;20150;-88
2023/05/06 10:43:30;;;;;;;6.80;2.67;;;25.90;41.60;;;;;;5074096;28;20139;-87
2023/05/06 10:46:15;;;;;;;8.02;2.70;;;25.60;41.00;;;;;;5073725;28;20070;-88
2023/05/06 10:49:03;;;;;;;8.30;2.58;;;25.40;42.70;;;;;;5072093;28;20111;-89
2023/05/06 10:51:30;;;;;;;4.55;2.28;;;25.00;43.70;;;;;;5072091;28;20158;-87
2023/05/06 10:53:57;;;;;;;5.97;2.35;;;24.90;44.50;;;;;;5071960;28;20082;-87
2023/05/06 10:56:22;;;;;;;3.33;2.17;;;25.20;45.30;;;;;;5072000;28;20120;-87
2023/05/06 10:58:48;;;;;;;3.83;1.80;;;25.60;44.00;;;;;;5071738;28;20123;-87
2023/05/06 11:01:14;;;;;;;3.30;1.90;;;25.90;42.30;;;;;;5071901;28;20025;-87
2023/05/06 11:03:43;;;;;;;7.00;2.08;;;26.00;41.40;;;;;;5071831;28;20041;-88
2023/05/06 11:06:09;;;;;;;5.28;1.85;;;26.10;42.10;;;;;;5072351;28;20020;-87
2023/05/06 11:08:35;;;;;;;6.20;1.40;;;26.10;41.10;;;;;;5073289;28;20540;-89
2023/05/06 11:11:40;;;;;;;10.85;2.10;;;26.10;41.00;;;;;;5071847;28;20028;-88
2023/05/06 11:14:12;;;;;;;3.42;1.50;;;25.90;38.60;;;;;;5071865;28;20054;-87
2023/05/06 11:17:00;;;;;;;9.70;2.75;;;25.70;40.50;;;;;;5073370;28;20028;-89
2023/05/06 11:19:30;;;;;;;5.75;1.92;;;25.70;41.00;;;;;;5089241;28;20540;-89
2023/05/06 11:21:58;;;;;;;4.57;2.47;;;25.90;41.50;;;;;;5071565;28;20053;-89
2023/05/06 11:24:27;;;;;;;4.97;2.28;;;26.00;42.10;;;;;;5071675;28;20099;-88
2023/05/06 11:26:54;;;;;;;9.82;2.17;;;26.20;41.80;;;;;;5071873;28;20362;-89
2023/05/06 11:29:21;;;;;;;9.40;1.75;;;25.90;40.40;;;;;;5071609;28;20492;-88
2023/05/06 11:31:48;;;;;;;3.40;2.30;;;25.80;41.10;;;;;;5071466;28;20070;-87
2023/05/06 11:34:24;;;;;;;3.58;2.22;;;25.50;41.10;;;;;;5072774;28;20081;-88
2023/05/06 11:37:01;;;;;;;4.03;2.47;;;25.50;42.70;;;;;;5072755;28;20029;-89
2023/05/06 11:39:30;;;;;;;7.07;2.33;;;25.50;40.90;;;;;;5073075;28;20044;-87
2023/05/06 11:42:02;;;;;;;5.97;2.50;;;25.10;41.70;;;;;;5071401;28;20035;-88
2023/05/06 11:44:38;;;;;;;3.45;2.15;;;24.90;41.50;;;;;;5072400;28;20028;-89
2023/05/06 11:47:06;;;;;;;4.30;2.33;;;24.70;42.30;;;;;;5072586;28;20017;-87
2023/05/06 11:49:40;;;;;;;3.88;1.90;;;24.70;43.70;;;;;;5071297;28;20565;-89
2023/05/06 11:52:09;;;;;;;7.45;1.80;;;25.10;43.90;;;;;;5071605;28;20028;-88
2023/05/06 11:54:38;;;;;;;4.10;1.40;;;25.30;43.30;;;;;;5071402;28;20025;-87
2023/05/06 11:57:03;;;;;;;7.90;1.83;;;25.50;42.40;;;;;;5070998;28;20020;-87
2023/05/06 11:59:31;;;;;;;4.50;2.08;;;25.60;42.70;;;;;;5072001;28;20047;-88
2023/05/06 12:01:59;;;;;;;8.75;2.10;;;25.50;42.00;;;;;;5070721;28;20035;-87
2023/05/06 12:04:25;;;;;;;5.28;1.60;;;25.50;42.10;;;;;;5070846;28;20029;-87
2023/05/06 12:06:52;;;;;;;4.97;1.90;;;25.50;41.60;;;;;;5069952;28;20036;-87
2023/05/06 12:09:21;;;;;;;7.85;2.50;;;25.50;42.00;;;;;;5071772;28;20516;-89
2023/05/06 12:11:47;;;;;;;7.97;1.67;;;25.30;40.20;;;;;;5072189;28;20027;-87
2023/05/06 12:14:13;;;;;;;2.63;1.88;;;25.00;42.30;;;;;;5072265;28;20028;-89
2023/05/06 12:16:39;;;;;;;5.78;2.25;;;25.00;41.50;;;;;;5071326;28;20050;-87
2023/05/06 12:19:05;;;;;;;5.75;2.08;;;24.90;42.00;;;;;;5072668;28;20028;-89
2023/05/06 12:21:31;;;;;;;2.97;1.90;;;24.80;42.10;;;;;;5073349;28;20051;-87
2023/05/06 12:23:59;;;;;;;3.60;1.75;;;24.80;42.30;;;;;;5071635;28;20111;-88
2023/05/06 12:26:26;;;;;;;4.90;1.80;;;24.90;43.60;;;;;;5070209;28;20053;-87
2023/05/06 12:29:07;;;;;;;4.40;1.67;;;24.90;42.50;;;;;;5071636;28;20033;-87
2023/05/06 12:31:34;;;;;;;3.88;1.27;;;24.80;42.20;;;;;;5071765;28;20032;-88
2023/05/06 12:33:59;;;;;;;6.55;2.95;;;25.00;41.70;;;;;;5072092;28;20100;-87
2023/05/06 12:36:25;;;;;;;4.07;1.40;;;25.30;42.90;;;;;;5071143;28;20119;-87
2023/05/06 12:38:56;;;;;;;11.88;1.75;;;25.60;42.80;;;;;;5069762;28;20017;-87
2023/05/06 12:41:24;;;;;;;3.35;1.85;;;25.90;41.70;;;;;;5069810;28;20139;-88
2023/05/06 12:43:51;;;;;;;5.30;1.50;;;26.20;41.20;;;;;;5069619;28;20070;-87
2023/05/06 12:46:17;;;;;;;6.30;1.65;;;26.30;40.90;;;;;;5071317;28;20035;-87
2023/05/06 12:48:59;;;;;;;6.78;1.98;;;26.40;41.20;;;;;;5069745;28;20025;-87
2023/05/06 12:51:26;;;;;;;3.83;1.77;;;26.30;40.40;;;;;;5071330;28;20028;-89
2023/05/06 12:53:52;;;;;;;2.95;1.67;;;26.10;40.60;;;;;;5070171;28;20035;-87
2023/05/06 12:56:20;;;;;;;2.83;1.52;;;25.90;38.90;;;;;;5070999;28;20035;-86
2023/05/06 12:59:00;;;;;;;2.72;1.50;;;25.70;39.90;;;;;;5070395;28;20089;-88